createdAt,value
2018-09-09T00:00:49.537Z,101255.00
2018-09-09T00:03:20.020Z,101265.00
2018-09-09T00:05:49.730Z,101259.00
2018-09-09T00:08:19.088Z,101252.00
2018-09-09T00:10:48.596Z,101259.00
2018-09-09T00:13:18.109Z,101253.00
2018-09-09T00:15:48.333Z,101256.00
2018-09-09T00:18:17.608Z,101251.00
2018-09-09T00:20:47.280Z,101253.00
2018-09-09T00:23:16.866Z,101248.00
2018-09-09T00:25:46.504Z,101241.00
2018-09-09T00:28:15.967Z,101246.00
2018-09-09T00:30:45.796Z,101237.00
2018-09-09T00:33:15.445Z,101237.00
2018-09-09T00:35:45.274Z,101229.00
2018-09-09T00:38:14.586Z,101239.00
2018-09-09T00:40:44.078Z,101249.00
2018-09-09T00:43:14.104Z,101246.00
2018-09-09T00:45:43.868Z,101233.00
2018-09-09T00:48:13.484Z,101226.00
2018-09-09T00:50:48.136Z,101227.00
2018-09-09T00:53:22.762Z,101230.00
2018-09-09T00:55:52.506Z,101234.00
2018-09-09T00:58:22.059Z,101233.00
2018-09-09T01:00:56.948Z,101239.00
2018-09-09T01:03:26.589Z,101241.00
2018-09-09T01:05:56.176Z,101238.00
2018-09-09T01:08:25.454Z,101234.00
2018-09-09T01:10:54.780Z,101235.00
2018-09-09T01:13:24.260Z,101237.00
2018-09-09T01:15:53.651Z,101245.00
2018-09-09T01:18:23.010Z,101234.00
2018-09-09T01:20:52.439Z,101233.00
2018-09-09T01:23:21.893Z,101227.00
2018-09-09T01:25:54.697Z,101227.00
2018-09-09T01:28:24.502Z,101222.00
2018-09-09T01:30:53.864Z,101220.00
2018-09-09T01:33:23.075Z,101219.00
2018-09-09T01:35:52.562Z,101222.00
2018-09-09T01:38:21.878Z,101232.00
2018-09-09T01:40:51.374Z,101229.00
2018-09-09T01:43:21.010Z,101228.00
2018-09-09T01:45:50.831Z,101225.00
2018-09-09T01:48:20.413Z,101224.00
2018-09-09T01:50:49.915Z,101233.00
2018-09-09T01:53:19.118Z,101234.00
2018-09-09T01:55:48.505Z,101235.00
2018-09-09T01:58:18.026Z,101247.00
2018-09-09T02:00:47.808Z,101232.00
2018-09-09T02:03:17.221Z,101237.00
2018-09-09T02:05:47.151Z,101233.00
2018-09-09T02:08:16.510Z,101237.00
2018-09-09T02:10:45.904Z,101239.00
2018-09-09T02:13:15.594Z,101238.00
2018-09-09T02:15:45.514Z,101234.00
2018-09-09T02:18:14.923Z,101239.00
2018-09-09T02:20:44.383Z,101229.00
2018-09-09T02:23:13.912Z,101226.00
2018-09-09T02:25:43.587Z,101230.00
2018-09-09T02:28:13.031Z,101228.00
2018-09-09T02:30:43.081Z,101227.00
2018-09-09T02:33:12.757Z,101225.00
2018-09-09T02:35:42.542Z,101224.00
2018-09-09T02:38:11.876Z,101222.00
2018-09-09T02:40:41.382Z,101217.00
2018-09-09T02:43:11.528Z,101225.00
2018-09-09T02:45:41.092Z,101235.00
2018-09-09T02:48:10.566Z,101234.00
2018-09-09T02:50:39.947Z,101235.00
2018-09-09T02:53:09.513Z,101228.00
2018-09-09T02:55:45.945Z,101220.00
2018-09-09T02:58:16.908Z,101224.00
2018-09-09T03:00:46.842Z,101227.00
2018-09-09T03:03:16.202Z,101225.00
2018-09-09T03:05:45.588Z,101219.00
2018-09-09T03:08:14.848Z,101218.00
2018-09-09T03:10:44.425Z,101216.00
2018-09-09T03:13:13.981Z,101220.00
2018-09-09T03:15:43.747Z,101215.00
2018-09-09T03:18:13.332Z,101219.00
2018-09-09T03:20:42.734Z,101222.00
2018-09-09T03:23:12.040Z,101221.00
2018-09-09T03:25:41.194Z,101224.00
2018-09-09T03:28:10.962Z,101223.00
2018-09-09T03:30:40.512Z,101216.00
2018-09-09T03:33:09.844Z,101221.00
2018-09-09T03:35:39.106Z,101218.00
2018-09-09T03:38:08.734Z,101215.00
2018-09-09T03:40:38.086Z,101214.00
2018-09-09T03:43:07.330Z,101219.00
2018-09-09T03:45:36.582Z,101215.00
2018-09-09T03:48:06.127Z,101223.00
2018-09-09T03:50:35.662Z,101219.00
2018-09-09T03:53:05.264Z,101215.00
2018-09-09T03:55:34.971Z,101219.00
2018-09-09T03:58:04.403Z,101212.00
2018-09-09T04:00:33.756Z,101216.00
2018-09-09T04:03:03.392Z,101204.00
2018-09-09T04:05:32.676Z,101209.00
2018-09-09T04:08:01.900Z,101210.00
2018-09-09T04:10:31.200Z,101221.00
2018-09-09T04:13:00.516Z,101210.00
2018-09-09T04:15:29.765Z,101218.00
2018-09-09T04:17:58.963Z,101213.00
2018-09-09T04:20:28.366Z,101219.00
2018-09-09T04:22:57.579Z,101225.00
2018-09-09T04:25:26.845Z,101222.00
2018-09-09T04:27:56.090Z,101231.00
2018-09-09T04:30:25.196Z,101227.00
2018-09-09T04:32:54.392Z,101225.00
2018-09-09T04:35:23.507Z,101236.00
2018-09-09T04:37:52.679Z,101225.00
2018-09-09T04:40:22.021Z,101231.00
2018-09-09T04:42:51.954Z,101228.00
2018-09-09T04:45:21.148Z,101240.00
2018-09-09T04:47:50.971Z,101234.00
2018-09-09T04:50:20.573Z,101241.00
2018-09-09T04:52:50.257Z,101246.00
2018-09-09T04:55:20.089Z,101240.00
2018-09-09T04:57:49.907Z,101246.00
2018-09-09T05:00:19.877Z,101238.00
2018-09-09T05:02:49.549Z,101237.00
2018-09-09T05:05:19.486Z,101240.00
2018-09-09T05:07:49.439Z,101236.00
2018-09-09T05:10:19.475Z,101246.00
2018-09-09T05:12:49.890Z,101260.00
2018-09-09T05:15:20.085Z,101252.00
2018-09-09T05:17:50.301Z,101251.00
2018-09-09T05:20:20.557Z,101268.00
2018-09-09T05:22:50.462Z,101273.00
2018-09-09T05:25:21.151Z,101271.00
2018-09-09T05:27:51.327Z,101260.00
2018-09-09T05:30:22.153Z,101270.00
2018-09-09T05:32:52.913Z,101264.00
2018-09-09T05:35:22.667Z,101257.00
2018-09-09T05:37:52.321Z,101265.00
2018-09-09T05:40:21.890Z,101265.00
2018-09-09T05:42:51.865Z,101263.00
2018-09-09T05:45:21.653Z,101271.00
2018-09-09T05:47:52.305Z,101271.00
2018-09-09T05:50:22.407Z,101264.00
2018-09-09T05:52:52.237Z,101274.00
2018-09-09T05:55:22.025Z,101274.00
2018-09-09T05:57:52.561Z,101273.00
2018-09-09T06:00:23.121Z,101275.00
2018-09-09T06:02:53.351Z,101285.00
2018-09-09T06:05:24.171Z,101271.00
2018-09-09T06:07:55.301Z,101281.00
2018-09-09T06:10:25.506Z,101302.00
2018-09-09T06:12:55.430Z,101302.00
2018-09-09T06:15:25.535Z,101293.00
2018-09-09T06:17:55.379Z,101298.00
2018-09-09T06:20:25.097Z,101301.00
2018-09-09T06:22:55.376Z,101307.00
2018-09-09T06:25:25.293Z,101288.00
2018-09-09T06:27:55.523Z,101293.00
2018-09-09T06:30:25.313Z,101288.00
2018-09-09T06:32:55.235Z,101289.00
2018-09-09T06:35:25.575Z,101295.00
2018-09-09T06:37:55.543Z,101281.00
2018-09-09T06:40:25.659Z,101283.00
2018-09-09T06:42:55.392Z,101281.00
2018-09-09T06:45:25.478Z,101285.00
2018-09-09T06:47:56.225Z,101287.00
2018-09-09T06:50:26.383Z,101290.00
2018-09-09T06:52:56.349Z,101292.00
2018-09-09T06:55:26.326Z,101292.00
2018-09-09T06:57:56.747Z,101302.00
2018-09-09T07:00:27.127Z,101305.00
2018-09-09T07:02:58.009Z,101314.00
2018-09-09T07:05:28.429Z,101306.00
2018-09-09T07:07:59.291Z,101307.00
2018-09-09T07:10:30.371Z,101307.00
2018-09-09T07:13:00.481Z,101301.00
2018-09-09T07:15:30.599Z,101312.00
2018-09-09T07:18:00.541Z,101308.00
2018-09-09T07:20:31.025Z,101313.00
2018-09-09T07:23:01.412Z,101313.00
2018-09-09T07:25:31.383Z,101313.00
2018-09-09T07:28:01.417Z,101317.00
2018-09-09T07:30:31.736Z,101315.00
2018-09-09T07:33:02.608Z,101319.00
2018-09-09T07:35:34.211Z,101328.00
2018-09-09T07:38:04.636Z,101332.00
2018-09-09T07:40:34.488Z,101319.00
2018-09-09T07:43:04.638Z,101320.00
2018-09-09T07:45:34.634Z,101320.00
2018-09-09T07:48:04.634Z,101328.00
2018-09-09T07:50:34.588Z,101313.00
2018-09-09T07:53:04.497Z,101313.00
2018-09-09T07:55:34.322Z,101308.00
2018-09-09T07:58:04.092Z,101307.00
2018-09-09T08:00:34.045Z,101309.00
2018-09-09T08:03:03.979Z,101311.00
2018-09-09T08:05:34.160Z,101311.00
2018-09-09T08:08:04.328Z,101322.00
2018-09-09T08:10:34.382Z,101319.00
2018-09-09T08:13:04.244Z,101320.00
2018-09-09T08:15:34.122Z,101325.00
2018-09-09T08:18:04.608Z,101325.00
2018-09-09T08:20:34.507Z,101339.00
2018-09-09T08:23:05.144Z,101332.00
2018-09-09T08:25:35.636Z,101341.00
2018-09-09T08:28:05.604Z,101342.00
2018-09-09T08:30:35.368Z,101334.00
2018-09-09T08:33:05.226Z,101341.00
2018-09-09T08:35:35.360Z,101339.00
2018-09-09T08:38:05.396Z,101329.00
2018-09-09T08:40:35.926Z,101333.00
2018-09-09T08:43:06.068Z,101334.00
2018-09-09T08:45:36.726Z,101331.00
2018-09-09T08:48:08.042Z,101330.00
2018-09-09T08:50:38.330Z,101339.00
2018-09-09T08:53:08.383Z,101329.00
2018-09-09T08:55:38.562Z,101339.00
2018-09-09T08:58:09.322Z,101334.00
2018-09-09T09:00:39.704Z,101331.00
2018-09-09T09:03:09.865Z,101333.00
2018-09-09T09:05:39.784Z,101327.00
2018-09-09T09:08:09.683Z,101336.00
2018-09-09T09:10:39.882Z,101337.00
2018-09-09T09:13:10.150Z,101341.00
2018-09-09T09:15:39.736Z,101347.00
2018-09-09T09:18:09.426Z,101335.00
2018-09-09T09:20:39.662Z,101342.00
2018-09-09T09:23:09.178Z,101332.00
2018-09-09T09:25:43.341Z,101336.00
2018-09-09T09:28:12.994Z,101339.00
2018-09-09T09:30:43.633Z,101335.00
2018-09-09T09:33:14.272Z,101329.00
2018-09-09T09:35:51.548Z,101320.00
2018-09-09T09:38:22.404Z,101332.00
2018-09-09T09:40:52.359Z,101317.00
2018-09-09T09:43:22.094Z,101317.00
2018-09-09T09:45:52.433Z,101318.00
2018-09-09T09:48:22.388Z,101323.00
2018-09-09T09:50:52.798Z,101320.00
2018-09-09T09:53:22.821Z,101324.00
2018-09-09T09:55:52.334Z,101330.00
2018-09-09T09:58:22.193Z,101318.00
2018-09-09T10:00:56.944Z,101313.00
2018-09-09T10:03:26.869Z,101318.00
2018-09-09T10:05:56.684Z,101318.00
2018-09-09T10:08:26.604Z,101320.00
2018-09-09T10:10:56.881Z,101309.00
2018-09-09T10:13:27.128Z,101315.00
2018-09-09T10:15:56.927Z,101314.00
2018-09-09T10:18:27.267Z,101309.00
2018-09-09T10:20:56.924Z,101315.00
2018-09-09T10:23:27.270Z,101309.00
2018-09-09T10:25:57.312Z,101306.00
2018-09-09T10:28:27.480Z,101310.00
2018-09-09T10:30:57.865Z,101303.00
2018-09-09T10:33:28.119Z,101304.00
2018-09-09T10:35:58.391Z,101306.00
2018-09-09T10:38:28.291Z,101299.00
2018-09-09T10:40:58.992Z,101296.00
2018-09-09T10:43:29.071Z,101306.00
2018-09-09T10:45:59.228Z,101291.00
2018-09-09T10:48:29.249Z,101302.00
2018-09-09T10:50:59.165Z,101308.00
2018-09-09T10:53:29.197Z,101306.00
2018-09-09T10:56:00.208Z,101312.00
2018-09-09T10:58:32.353Z,101311.00
2018-09-09T11:01:02.500Z,101323.00
2018-09-09T11:03:32.870Z,101326.00
2018-09-09T11:06:03.107Z,101327.00
2018-09-09T11:08:33.217Z,101332.00
2018-09-09T11:11:03.842Z,101330.00
2018-09-09T11:13:33.988Z,101328.00
2018-09-09T11:16:04.465Z,101322.00
2018-09-09T11:18:34.470Z,101326.00
2018-09-09T11:21:04.683Z,101313.00
2018-09-09T11:23:34.251Z,101306.00
2018-09-09T11:26:04.134Z,101306.00
2018-09-09T11:28:34.889Z,101304.00
2018-09-09T11:31:05.429Z,101309.00
2018-09-09T11:33:35.727Z,101304.00
2018-09-09T11:36:05.798Z,101313.00
2018-09-09T11:38:35.795Z,101315.00
2018-09-09T11:41:05.730Z,101311.00
2018-09-09T11:43:36.097Z,101315.00
2018-09-09T11:46:06.523Z,101315.00
2018-09-09T11:48:36.985Z,101311.00
2018-09-09T11:51:07.095Z,101312.00
2018-09-09T11:53:37.450Z,101311.00
2018-09-09T11:56:07.193Z,101311.00
2018-09-09T11:58:36.887Z,101313.00
2018-09-09T12:01:06.965Z,101309.00
2018-09-09T12:03:37.477Z,101311.00
2018-09-09T12:06:07.376Z,101294.00
2018-09-09T12:08:37.285Z,101292.00
2018-09-09T12:11:08.131Z,101307.00
2018-09-09T12:13:38.316Z,101305.00
2018-09-09T12:16:09.336Z,101306.00
2018-09-09T12:18:39.544Z,101301.00
2018-09-09T12:21:09.781Z,101299.00
2018-09-09T12:23:40.480Z,101297.00
2018-09-09T12:26:10.656Z,101305.00
2018-09-09T12:28:40.997Z,101298.00
2018-09-09T12:31:11.010Z,101299.00
2018-09-09T12:33:41.005Z,101302.00
2018-09-09T12:36:11.453Z,101312.00
2018-09-09T12:38:41.361Z,101300.00
2018-09-09T12:41:11.409Z,101290.00
2018-09-09T12:43:47.551Z,101310.00
2018-09-09T12:46:22.380Z,101303.00
2018-09-09T12:48:58.258Z,101309.00
2018-09-09T12:51:27.929Z,101317.00
2018-09-09T12:53:57.842Z,101308.00
2018-09-09T12:56:27.967Z,101309.00
2018-09-09T12:58:59.149Z,101310.00
2018-09-09T13:01:29.767Z,101311.00
2018-09-09T13:04:02.359Z,101303.00
2018-09-09T13:06:33.141Z,101297.00
2018-09-09T13:09:03.435Z,101305.00
2018-09-09T13:11:33.768Z,101295.00
2018-09-09T13:14:03.962Z,101298.00
2018-09-09T13:16:34.489Z,101294.00
2018-09-09T13:19:04.716Z,101294.00
2018-09-09T13:21:34.925Z,101301.00
2018-09-09T13:24:04.428Z,101308.00
2018-09-09T13:26:34.245Z,101304.00
2018-09-09T13:29:05.216Z,101293.00
2018-09-09T13:31:35.343Z,101297.00
2018-09-09T13:34:05.057Z,101304.00
2018-09-09T13:36:35.225Z,101308.00
2018-09-09T13:39:06.225Z,101303.00
2018-09-09T13:41:36.227Z,101303.00
2018-09-09T13:44:06.805Z,101306.00
2018-09-09T13:46:36.853Z,101298.00
2018-09-09T13:49:07.147Z,101291.00
2018-09-09T13:51:38.191Z,101295.00
2018-09-09T13:54:08.284Z,101302.00
2018-09-09T13:56:38.279Z,101292.00
2018-09-09T13:59:09.176Z,101303.00
2018-09-09T14:01:39.290Z,101308.00
2018-09-09T14:04:09.324Z,101294.00
2018-09-09T14:06:39.439Z,101305.00
2018-09-09T14:09:09.858Z,101306.00
2018-09-09T14:11:39.670Z,101300.00
2018-09-09T14:14:10.594Z,101306.00
2018-09-09T14:16:40.417Z,101305.00
2018-09-09T14:19:10.592Z,101302.00
2018-09-09T14:21:41.495Z,101308.00
2018-09-09T14:24:11.316Z,101308.00
2018-09-09T14:26:41.431Z,101305.00
2018-09-09T14:29:12.095Z,101298.00
2018-09-09T14:31:43.184Z,101305.00
2018-09-09T14:34:13.246Z,101301.00
2018-09-09T14:36:43.496Z,101306.00
2018-09-09T14:39:14.234Z,101305.00
2018-09-09T14:41:44.365Z,101311.00
2018-09-09T14:44:15.045Z,101302.00
2018-09-09T14:46:45.005Z,101297.00
2018-09-09T14:49:15.529Z,101296.00
2018-09-09T14:51:46.373Z,101305.00
2018-09-09T14:54:17.067Z,101303.00
2018-09-09T14:56:47.435Z,101306.00
2018-09-09T14:59:18.175Z,101300.00
2018-09-09T15:01:48.737Z,101296.00
2018-09-09T15:04:19.210Z,101302.00
2018-09-09T15:06:49.579Z,101306.00
2018-09-09T15:09:19.351Z,101295.00
2018-09-09T15:11:50.703Z,101298.00
2018-09-09T15:14:21.030Z,101299.00
2018-09-09T15:16:51.537Z,101293.00
2018-09-09T15:19:22.381Z,101295.00
2018-09-09T15:21:52.086Z,101295.00
2018-09-09T15:24:22.509Z,101288.00
2018-09-09T15:26:52.559Z,101292.00
2018-09-09T15:29:22.611Z,101290.00
2018-09-09T15:31:52.911Z,101287.00
2018-09-09T15:34:23.153Z,101285.00
2018-09-09T15:36:53.163Z,101284.00
2018-09-09T15:39:24.059Z,101286.00
2018-09-09T15:41:54.241Z,101280.00
2018-09-09T15:44:24.277Z,101283.00
2018-09-09T15:46:54.845Z,101280.00
2018-09-09T15:49:25.313Z,101280.00
2018-09-09T15:51:55.745Z,101271.00
2018-09-09T15:54:27.061Z,101277.00
2018-09-09T15:56:58.127Z,101279.00
2018-09-09T15:59:29.759Z,101282.00
2018-09-09T16:02:02.133Z,101279.00
2018-09-09T16:04:33.198Z,101280.00
2018-09-09T16:07:04.492Z,101277.00
2018-09-09T16:09:35.760Z,101280.00
2018-09-09T16:12:06.435Z,101281.00
2018-09-09T16:14:37.289Z,101275.00
2018-09-09T16:17:08.732Z,101273.00
2018-09-09T16:19:39.692Z,101284.00
2018-09-09T16:22:11.016Z,101282.00
2018-09-09T16:24:41.698Z,101282.00
2018-09-09T16:27:12.230Z,101289.00
2018-09-09T16:29:42.811Z,101280.00
2018-09-09T16:32:13.242Z,101290.00
2018-09-09T16:34:43.798Z,101287.00
2018-09-09T16:37:14.675Z,101279.00
2018-09-09T16:39:44.917Z,101291.00
2018-09-09T16:42:16.622Z,101286.00
2018-09-09T16:44:48.078Z,101283.00
2018-09-09T16:47:19.091Z,101287.00
2018-09-09T16:49:49.906Z,101292.00
2018-09-09T16:52:21.370Z,101288.00
2018-09-09T16:54:51.769Z,101294.00
2018-09-09T16:57:23.152Z,101305.00
2018-09-09T16:59:53.338Z,101296.00
2018-09-09T17:02:24.320Z,101296.00
2018-09-09T17:04:56.160Z,101290.00
2018-09-09T17:07:26.882Z,101286.00
2018-09-09T17:09:58.280Z,101291.00
2018-09-09T17:12:29.539Z,101287.00
2018-09-09T17:15:00.324Z,101290.00
2018-09-09T17:17:30.650Z,101286.00
2018-09-09T17:20:01.419Z,101293.00
2018-09-09T17:22:31.994Z,101292.00
2018-09-09T17:25:02.826Z,101297.00
2018-09-09T17:27:32.382Z,101290.00
2018-09-09T17:30:03.033Z,101283.00
2018-09-09T17:32:33.175Z,101288.00
2018-09-09T17:35:03.842Z,101288.00
2018-09-09T17:37:34.178Z,101289.00
2018-09-09T17:40:04.117Z,101296.00
2018-09-09T17:42:34.184Z,101303.00
2018-09-09T17:45:04.517Z,101302.00
2018-09-09T17:47:34.820Z,101302.00
2018-09-09T17:50:04.598Z,101298.00
2018-09-09T17:52:34.547Z,101301.00
2018-09-09T17:55:04.421Z,101304.00
2018-09-09T17:57:33.877Z,101297.00
2018-09-09T18:00:03.677Z,101308.00
2018-09-09T18:02:33.078Z,101308.00
2018-09-09T18:05:02.684Z,101306.00
2018-09-09T18:07:32.171Z,101308.00
2018-09-09T18:10:02.062Z,101300.00
2018-09-09T18:12:31.495Z,101302.00
2018-09-09T18:15:01.161Z,101306.00
2018-09-09T18:17:30.540Z,101311.00
2018-09-09T18:19:59.873Z,101314.00
2018-09-09T18:22:29.730Z,101326.00
2018-09-09T18:24:59.456Z,101316.00
2018-09-09T18:27:29.216Z,101318.00
2018-09-09T18:30:01.978Z,101314.00
2018-09-09T18:32:32.032Z,101321.00
2018-09-09T18:35:01.692Z,101323.00
2018-09-09T18:37:31.557Z,101323.00
2018-09-09T18:40:01.545Z,101323.00
2018-09-09T18:42:31.429Z,101322.00
2018-09-09T18:45:02.355Z,101333.00
2018-09-09T18:47:32.976Z,101334.00
2018-09-09T18:50:03.720Z,101320.00
2018-09-09T18:52:34.169Z,101323.00
2018-09-09T18:55:05.462Z,101327.00
2018-09-09T18:57:35.607Z,101326.00
2018-09-09T19:00:05.604Z,101323.00
2018-09-09T19:02:36.526Z,101319.00
2018-09-09T19:05:06.925Z,101315.00
2018-09-09T19:07:36.466Z,101322.00
2018-09-09T19:10:06.637Z,101318.00
2018-09-09T19:12:36.385Z,101320.00
2018-09-09T19:15:06.446Z,101313.00
2018-09-09T19:17:36.641Z,101319.00
2018-09-09T19:20:06.289Z,101316.00
2018-09-09T19:22:36.037Z,101328.00
2018-09-09T19:25:05.977Z,101327.00
2018-09-09T19:27:35.700Z,101324.00
2018-09-09T19:30:05.969Z,101327.00
2018-09-09T19:32:36.141Z,101325.00
2018-09-09T19:35:06.113Z,101327.00
2018-09-09T19:37:36.669Z,101332.00
2018-09-09T19:40:06.684Z,101328.00
2018-09-09T19:42:38.005Z,101335.00
2018-09-09T19:45:08.157Z,101322.00
2018-09-09T19:47:38.605Z,101328.00
2018-09-09T19:50:08.351Z,101315.00
2018-09-09T19:52:38.545Z,101327.00
2018-09-09T19:55:08.149Z,101317.00
2018-09-09T19:57:38.151Z,101309.00
2018-09-09T20:00:07.965Z,101312.00
2018-09-09T20:02:37.203Z,101320.00
2018-09-09T20:05:07.349Z,101322.00
2018-09-09T20:07:36.532Z,101321.00
2018-09-09T20:10:06.271Z,101317.00
2018-09-09T20:12:36.225Z,101323.00
2018-09-09T20:15:06.250Z,101328.00
2018-09-09T20:17:36.099Z,101333.00
2018-09-09T20:20:06.003Z,101331.00
2018-09-09T20:22:36.166Z,101330.00
2018-09-09T20:25:06.059Z,101329.00
2018-09-09T20:27:35.972Z,101326.00
2018-09-09T20:30:05.802Z,101331.00
2018-09-09T20:32:36.208Z,101325.00
2018-09-09T20:35:05.931Z,101324.00
2018-09-09T20:37:35.637Z,101318.00
2018-09-09T20:40:05.415Z,101323.00
2018-09-09T20:42:35.650Z,101320.00
2018-09-09T20:45:05.971Z,101324.00
2018-09-09T20:47:35.984Z,101312.00
2018-09-09T20:50:06.338Z,101312.00
2018-09-09T20:52:36.719Z,101317.00
2018-09-09T20:55:06.563Z,101324.00
2018-09-09T20:57:36.477Z,101328.00
2018-09-09T21:00:06.315Z,101324.00
2018-09-09T21:02:36.397Z,101322.00
2018-09-09T21:05:06.867Z,101318.00
2018-09-09T21:07:36.897Z,101320.00
2018-09-09T21:10:06.876Z,101321.00
2018-09-09T21:12:37.019Z,101319.00
2018-09-09T21:15:07.369Z,101313.00
2018-09-09T21:17:37.216Z,101314.00
2018-09-09T21:20:07.383Z,101314.00
2018-09-09T21:22:37.179Z,101320.00
2018-09-09T21:25:07.766Z,101322.00
2018-09-09T21:27:37.704Z,101316.00
2018-09-09T21:30:07.561Z,101314.00
2018-09-09T21:32:37.912Z,101312.00
2018-09-09T21:35:07.939Z,101319.00
2018-09-09T21:37:38.091Z,101313.00
2018-09-09T21:40:07.975Z,101316.00
2018-09-09T21:42:38.230Z,101323.00
2018-09-09T21:45:08.543Z,101315.00
2018-09-09T21:47:37.925Z,101319.00
2018-09-09T21:50:07.603Z,101319.00
2018-09-09T21:52:37.725Z,101316.00
2018-09-09T21:55:07.562Z,101315.00
2018-09-09T21:57:37.603Z,101313.00
2018-09-09T22:00:09.777Z,101312.00
2018-09-09T22:02:41.295Z,101316.00
2018-09-09T22:05:11.755Z,101306.00
2018-09-09T22:07:41.342Z,101306.00
2018-09-09T22:10:11.036Z,101306.00
2018-09-09T22:12:40.793Z,101306.00
2018-09-09T22:15:10.567Z,101297.00
2018-09-09T22:17:41.529Z,101297.00
2018-09-09T22:20:11.303Z,101295.00
2018-09-09T22:22:42.258Z,101296.00
2018-09-09T22:25:11.707Z,101304.00
2018-09-09T22:27:41.342Z,101296.00
2018-09-09T22:30:11.161Z,101303.00
2018-09-09T22:32:41.051Z,101299.00
2018-09-09T22:35:10.601Z,101298.00
2018-09-09T22:37:40.642Z,101301.00
2018-09-09T22:40:10.618Z,101301.00
2018-09-09T22:42:40.320Z,101312.00
2018-09-09T22:45:10.339Z,101306.00
2018-09-09T22:47:39.933Z,101304.00
2018-09-09T22:50:09.695Z,101310.00
2018-09-09T22:52:39.709Z,101307.00
2018-09-09T22:55:09.455Z,101314.00
2018-09-09T22:57:39.264Z,101310.00
2018-09-09T23:00:09.107Z,101309.00
2018-09-09T23:02:39.115Z,101312.00
2018-09-09T23:05:09.027Z,101311.00
2018-09-09T23:07:38.886Z,101306.00
2018-09-09T23:10:08.583Z,101303.00
2018-09-09T23:12:37.961Z,101313.00
2018-09-09T23:15:07.767Z,101310.00
2018-09-09T23:17:37.091Z,101297.00
2018-09-09T23:20:06.641Z,101298.00
2018-09-09T23:22:36.651Z,101299.00
2018-09-09T23:25:06.484Z,101285.00
2018-09-09T23:27:36.252Z,101286.00
2018-09-09T23:30:05.910Z,101297.00
2018-09-09T23:32:35.531Z,101295.00
2018-09-09T23:35:04.945Z,101285.00
2018-09-09T23:37:34.825Z,101279.00
2018-09-09T23:40:04.393Z,101273.00
2018-09-09T23:42:34.725Z,101271.00
2018-09-09T23:45:04.421Z,101268.00
2018-09-09T23:47:34.204Z,101268.00
2018-09-09T23:50:04.018Z,101262.00
2018-09-09T23:52:34.275Z,101257.00
2018-09-09T23:55:04.193Z,101263.00
2018-09-09T23:57:33.968Z,101268.00
